sensor_id;sensor_type;location;lat;lon;timestamp;temperature;humidity
19248;DHT22;9758;48.640;8.148;2023-11-18T00:00:26;10.20;61.70
19248;DHT22;9758;48.640;8.148;2023-11-18T00:02:53;10.20;61.60
19248;DHT22;9758;48.640;8.148;2023-11-18T00:05:21;10.30;61.70
19248;DHT22;9758;48.640;8.148;2023-11-18T00:07:49;10.20;61.60
19248;DHT22;9758;48.640;8.148;2023-11-18T00:10:16;10.20;61.60
19248;DHT22;9758;48.640;8.148;2023-11-18T00:12:43;10.20;61.60
19248;DHT22;9758;48.640;8.148;2023-11-18T00:15:10;10.20;61.60
19248;DHT22;9758;48.640;8.148;2023-11-18T00:17:37;10.30;61.70
19248;DHT22;9758;48.640;8.148;2023-11-18T00:20:04;10.20;61.60
19248;DHT22;9758;48.640;8.148;2023-11-18T00:22:36;10.30;61.70
19248;DHT22;9758;48.640;8.148;2023-11-18T00:25:03;10.30;61.60
19248;DHT22;9758;48.640;8.148;2023-11-18T00:27:33;10.30;61.60
19248;DHT22;9758;48.640;8.148;2023-11-18T00:30:01;10.30;61.60
19248;DHT22;9758;48.640;8.148;2023-11-18T00:32:30;10.30;61.60
19248;DHT22;9758;48.640;8.148;2023-11-18T00:34:58;10.30;61.50
19248;DHT22;9758;48.640;8.148;2023-11-18T00:37:24;10.20;61.40
19248;DHT22;9758;48.640;8.148;2023-11-18T00:39:53;10.30;61.50
19248;DHT22;9758;48.640;8.148;2023-11-18T00:42:20;10.30;61.60
19248;DHT22;9758;48.640;8.148;2023-11-18T00:44:53;10.20;61.50
19248;DHT22;9758;48.640;8.148;2023-11-18T00:47:21;10.30;61.60
19248;DHT22;9758;48.640;8.148;2023-11-18T00:49:48;10.30;61.60
19248;DHT22;9758;48.640;8.148;2023-11-18T00:52:17;10.30;61.60
19248;DHT22;9758;48.640;8.148;2023-11-18T00:54:44;10.30;61.60
19248;DHT22;9758;48.640;8.148;2023-11-18T00:57:12;10.30;61.50
19248;DHT22;9758;48.640;8.148;2023-11-18T00:59:41;10.20;61.40
19248;DHT22;9758;48.640;8.148;2023-11-18T01:02:08;10.20;61.60
19248;DHT22;9758;48.640;8.148;2023-11-18T01:04:35;10.20;61.60
19248;DHT22;9758;48.640;8.148;2023-11-18T01:07:02;10.20;61.60
19248;DHT22;9758;48.640;8.148;2023-11-18T01:09:29;10.20;61.70
19248;DHT22;9758;48.640;8.148;2023-11-18T01:12:02;10.20;61.70
19248;DHT22;9758;48.640;8.148;2023-11-18T01:14:30;10.20;61.70
19248;DHT22;9758;48.640;8.148;2023-11-18T01:16:57;10.20;61.70
19248;DHT22;9758;48.640;8.148;2023-11-18T01:19:24;10.20;61.60
19248;DHT22;9758;48.640;8.148;2023-11-18T01:21:50;10.20;61.60
19248;DHT22;9758;48.640;8.148;2023-11-18T01:24:18;10.20;61.60
19248;DHT22;9758;48.640;8.148;2023-11-18T01:26:45;10.20;61.50
19248;DHT22;9758;48.640;8.148;2023-11-18T01:29:12;10.20;61.60
19248;DHT22;9758;48.640;8.148;2023-11-18T01:31:40;10.20;61.60
19248;DHT22;9758;48.640;8.148;2023-11-18T01:34:07;10.20;61.60
19248;DHT22;9758;48.640;8.148;2023-11-18T01:36:34;10.20;61.60
19248;DHT22;9758;48.640;8.148;2023-11-18T01:39:01;10.20;61.60
19248;DHT22;9758;48.640;8.148;2023-11-18T01:41:28;10.20;61.70
19248;DHT22;9758;48.640;8.148;2023-11-18T01:43:57;10.20;61.70
19248;DHT22;9758;48.640;8.148;2023-11-18T01:46:36;10.20;61.60
19248;DHT22;9758;48.640;8.148;2023-11-18T01:49:04;10.20;61.60
19248;DHT22;9758;48.640;8.148;2023-11-18T01:51:33;10.20;61.60
19248;DHT22;9758;48.640;8.148;2023-11-18T01:54:02;10.30;61.70
19248;DHT22;9758;48.640;8.148;2023-11-18T01:56:30;10.30;61.70
19248;DHT22;9758;48.640;8.148;2023-11-18T01:58:58;10.30;61.60
19248;DHT22;9758;48.640;8.148;2023-11-18T02:01:26;10.30;61.60
19248;DHT22;9758;48.640;8.148;2023-11-18T02:03:54;10.30;61.60
19248;DHT22;9758;48.640;8.148;2023-11-18T02:06:22;10.30;61.50
19248;DHT22;9758;48.640;8.148;2023-11-18T02:08:49;10.30;61.60
19248;DHT22;9758;48.640;8.148;2023-11-18T02:11:26;10.30;61.50
19248;DHT22;9758;48.640;8.148;2023-11-18T02:13:56;10.30;61.40
19248;DHT22;9758;48.640;8.148;2023-11-18T02:16:25;10.20;61.40
19248;DHT22;9758;48.640;8.148;2023-11-18T02:18:53;10.10;61.60
19248;DHT22;9758;48.640;8.148;2023-11-18T02:21:22;10.20;61.80
19248;DHT22;9758;48.640;8.148;2023-11-18T02:23:49;10.10;61.80
19248;DHT22;9758;48.640;8.148;2023-11-18T02:26:22;10.20;61.90
19248;DHT22;9758;48.640;8.148;2023-11-18T02:28:49;10.20;61.80
19248;DHT22;9758;48.640;8.148;2023-11-18T02:31:20;10.20;61.90
19248;DHT22;9758;48.640;8.148;2023-11-18T02:33:55;10.20;61.70
19248;DHT22;9758;48.640;8.148;2023-11-18T02:36:28;10.20;61.70
19248;DHT22;9758;48.640;8.148;2023-11-18T02:39:04;10.20;61.70
19248;DHT22;9758;48.640;8.148;2023-11-18T02:41:35;10.20;61.70
19248;DHT22;9758;48.640;8.148;2023-11-18T02:44:02;10.20;61.70
19248;DHT22;9758;48.640;8.148;2023-11-18T02:46:44;10.20;61.70
19248;DHT22;9758;48.640;8.148;2023-11-18T02:49:11;10.20;61.70
19248;DHT22;9758;48.640;8.148;2023-11-18T02:51:38;10.10;61.60
19248;DHT22;9758;48.640;8.148;2023-11-18T02:54:05;10.10;61.60
19248;DHT22;9758;48.640;8.148;2023-11-18T02:56:37;10.20;61.70
19248;DHT22;9758;48.640;8.148;2023-11-18T02:59:04;10.10;61.60
19248;DHT22;9758;48.640;8.148;2023-11-18T03:01:31;10.10;61.50
19248;DHT22;9758;48.640;8.148;2023-11-18T03:03:59;10.10;61.40
19248;DHT22;9758;48.640;8.148;2023-11-18T03:06:25;10.00;61.40
19248;DHT22;9758;48.640;8.148;2023-11-18T03:08:52;9.90;61.30
19248;DHT22;9758;48.640;8.148;2023-11-18T03:11:19;9.90;61.40
19248;DHT22;9758;48.640;8.148;2023-11-18T03:13:47;9.80;61.30
19248;DHT22;9758;48.640;8.148;2023-11-18T03:16:14;9.80;61.40
19248;DHT22;9758;48.640;8.148;2023-11-18T03:18:43;9.70;61.30
19248;DHT22;9758;48.640;8.148;2023-11-18T03:21:11;9.70;61.30
19248;DHT22;9758;48.640;8.148;2023-11-18T03:23:38;9.60;61.30
19248;DHT22;9758;48.640;8.148;2023-11-18T03:26:06;9.60;61.30
19248;DHT22;9758;48.640;8.148;2023-11-18T03:28:33;9.60;61.40
19248;DHT22;9758;48.640;8.148;2023-11-18T03:31:03;9.50;61.30
19248;DHT22;9758;48.640;8.148;2023-11-18T03:33:30;9.40;61.30
19248;DHT22;9758;48.640;8.148;2023-11-18T03:35:57;9.40;61.40
19248;DHT22;9758;48.640;8.148;2023-11-18T03:38:24;9.40;61.30
19248;DHT22;9758;48.640;8.148;2023-11-18T03:40:53;9.30;61.30
19248;DHT22;9758;48.640;8.148;2023-11-18T03:43:21;9.20;61.20
19248;DHT22;9758;48.640;8.148;2023-11-18T03:45:47;9.20;61.20
19248;DHT22;9758;48.640;8.148;2023-11-18T03:48:16;9.10;61.20
19248;DHT22;9758;48.640;8.148;2023-11-18T03:50:44;9.10;61.30
19248;DHT22;9758;48.640;8.148;2023-11-18T03:53:11;9.00;61.30
19248;DHT22;9758;48.640;8.148;2023-11-18T03:55:37;9.00;61.40
19248;DHT22;9758;48.640;8.148;2023-11-18T03:58:04;8.90;61.40
19248;DHT22;9758;48.640;8.148;2023-11-18T04:00:31;8.90;61.40
19248;DHT22;9758;48.640;8.148;2023-11-18T04:02:58;8.90;61.40
19248;DHT22;9758;48.640;8.148;2023-11-18T04:05:26;8.90;61.40
19248;DHT22;9758;48.640;8.148;2023-11-18T04:07:53;8.80;61.40
19248;DHT22;9758;48.640;8.148;2023-11-18T04:10:19;8.80;62.10
19248;DHT22;9758;48.640;8.148;2023-11-18T04:12:48;8.80;61.50
19248;DHT22;9758;48.640;8.148;2023-11-18T04:15:15;8.70;61.50
19248;DHT22;9758;48.640;8.148;2023-11-18T04:17:42;8.70;61.60
19248;DHT22;9758;48.640;8.148;2023-11-18T04:20:10;8.70;61.60
19248;DHT22;9758;48.640;8.148;2023-11-18T04:22:40;8.70;61.70
19248;DHT22;9758;48.640;8.148;2023-11-18T04:25:07;8.70;61.70
19248;DHT22;9758;48.640;8.148;2023-11-18T04:27:34;8.70;61.70
19248;DHT22;9758;48.640;8.148;2023-11-18T04:30:01;8.70;61.70
19248;DHT22;9758;48.640;8.148;2023-11-18T04:32:28;8.70;61.70
19248;DHT22;9758;48.640;8.148;2023-11-18T04:34:58;8.70;61.70
19248;DHT22;9758;48.640;8.148;2023-11-18T04:37:25;8.70;61.70
19248;DHT22;9758;48.640;8.148;2023-11-18T04:39:53;8.70;61.80
19248;DHT22;9758;48.640;8.148;2023-11-18T04:42:20;8.70;62.10
19248;DHT22;9758;48.640;8.148;2023-11-18T04:44:47;8.70;61.80
19248;DHT22;9758;48.640;8.148;2023-11-18T04:47:14;8.70;61.70
19248;DHT22;9758;48.640;8.148;2023-11-18T04:49:43;8.70;61.70
19248;DHT22;9758;48.640;8.148;2023-11-18T04:52:10;8.70;61.70
19248;DHT22;9758;48.640;8.148;2023-11-18T04:54:37;8.60;61.70
19248;DHT22;9758;48.640;8.148;2023-11-18T04:57:05;8.60;61.70
19248;DHT22;9758;48.640;8.148;2023-11-18T04:59:34;8.60;61.70
19248;DHT22;9758;48.640;8.148;2023-11-18T05:02:01;8.60;61.70
19248;DHT22;9758;48.640;8.148;2023-11-18T05:04:28;8.60;61.70
19248;DHT22;9758;48.640;8.148;2023-11-18T05:06:55;8.60;61.70
19248;DHT22;9758;48.640;8.148;2023-11-18T05:09:22;8.60;61.70
19248;DHT22;9758;48.640;8.148;2023-11-18T05:11:49;8.60;61.70
19248;DHT22;9758;48.640;8.148;2023-11-18T05:14:17;8.60;61.70
19248;DHT22;9758;48.640;8.148;2023-11-18T05:16:44;8.60;61.70
19248;DHT22;9758;48.640;8.148;2023-11-18T05:19:11;8.50;61.70
19248;DHT22;9758;48.640;8.148;2023-11-18T05:21:38;8.50;61.70
19248;DHT22;9758;48.640;8.148;2023-11-18T05:24:05;8.50;61.70
19248;DHT22;9758;48.640;8.148;2023-11-18T05:26:32;8.50;61.80
19248;DHT22;9758;48.640;8.148;2023-11-18T05:29:00;8.50;61.70
19248;DHT22;9758;48.640;8.148;2023-11-18T05:31:28;8.40;61.70
19248;DHT22;9758;48.640;8.148;2023-11-18T05:33:57;8.40;61.70
19248;DHT22;9758;48.640;8.148;2023-11-18T05:36:24;8.50;61.70
19248;DHT22;9758;48.640;8.148;2023-11-18T05:38:53;8.40;61.70
19248;DHT22;9758;48.640;8.148;2023-11-18T05:41:20;8.40;61.70
19248;DHT22;9758;48.640;8.148;2023-11-18T05:43:53;8.40;61.80
19248;DHT22;9758;48.640;8.148;2023-11-18T05:46:23;8.40;61.80
19248;DHT22;9758;48.640;8.148;2023-11-18T05:48:53;8.40;61.80
19248;DHT22;9758;48.640;8.148;2023-11-18T05:51:20;8.40;61.80
19248;DHT22;9758;48.640;8.148;2023-11-18T05:53:48;8.40;61.90
19248;DHT22;9758;48.640;8.148;2023-11-18T05:56:15;8.40;61.80
19248;DHT22;9758;48.640;8.148;2023-11-18T05:58:43;8.30;61.80
19248;DHT22;9758;48.640;8.148;2023-11-18T06:01:10;8.40;61.90
19248;DHT22;9758;48.640;8.148;2023-11-18T06:03:37;8.30;62.60
19248;DHT22;9758;48.640;8.148;2023-11-18T06:06:07;8.40;62.00
19248;DHT22;9758;48.640;8.148;2023-11-18T06:08:34;8.40;62.00
19248;DHT22;9758;48.640;8.148;2023-11-18T06:11:00;8.40;61.90
19248;DHT22;9758;48.640;8.148;2023-11-18T06:13:38;8.40;62.00
19248;DHT22;9758;48.640;8.148;2023-11-18T06:16:08;8.40;62.00
19248;DHT22;9758;48.640;8.148;2023-11-18T06:18:40;8.40;62.00
19248;DHT22;9758;48.640;8.148;2023-11-18T06:21:13;8.40;62.00
19248;DHT22;9758;48.640;8.148;2023-11-18T06:23:40;8.40;62.00
19248;DHT22;9758;48.640;8.148;2023-11-18T06:26:07;8.40;62.10
19248;DHT22;9758;48.640;8.148;2023-11-18T06:28:36;8.40;62.00
19248;DHT22;9758;48.640;8.148;2023-11-18T06:31:03;8.40;62.00
19248;DHT22;9758;48.640;8.148;2023-11-18T06:33:30;8.50;62.10
19248;DHT22;9758;48.640;8.148;2023-11-18T06:35:57;8.50;62.10
19248;DHT22;9758;48.640;8.148;2023-11-18T06:38:27;8.50;62.00
19248;DHT22;9758;48.640;8.148;2023-11-18T06:40:55;8.50;62.10
19248;DHT22;9758;48.640;8.148;2023-11-18T06:43:23;8.50;62.10
19248;DHT22;9758;48.640;8.148;2023-11-18T06:45:51;8.50;62.10
19248;DHT22;9758;48.640;8.148;2023-11-18T06:48:18;8.60;62.10
19248;DHT22;9758;48.640;8.148;2023-11-18T06:50:46;8.50;62.10
19248;DHT22;9758;48.640;8.148;2023-11-18T06:53:12;8.60;62.10
19248;DHT22;9758;48.640;8.148;2023-11-18T06:55:41;8.60;62.10
19248;DHT22;9758;48.640;8.148;2023-11-18T06:58:08;8.60;62.10
19248;DHT22;9758;48.640;8.148;2023-11-18T07:00:42;8.70;62.20
19248;DHT22;9758;48.640;8.148;2023-11-18T07:03:09;8.70;62.10
19248;DHT22;9758;48.640;8.148;2023-11-18T07:05:37;8.70;62.10
19248;DHT22;9758;48.640;8.148;2023-11-18T07:08:05;8.80;62.20
19248;DHT22;9758;48.640;8.148;2023-11-18T07:10:33;8.80;62.20
19248;DHT22;9758;48.640;8.148;2023-11-18T07:13:04;8.80;62.10
19248;DHT22;9758;48.640;8.148;2023-11-18T07:15:32;8.90;62.90
19248;DHT22;9758;48.640;8.148;2023-11-18T07:17:59;8.90;62.10
19248;DHT22;9758;48.640;8.148;2023-11-18T07:20:27;9.00;62.10
19248;DHT22;9758;48.640;8.148;2023-11-18T07:22:53;9.00;62.10
19248;DHT22;9758;48.640;8.148;2023-11-18T07:25:20;9.00;62.10
19248;DHT22;9758;48.640;8.148;2023-11-18T07:27:51;9.00;62.10
19248;DHT22;9758;48.640;8.148;2023-11-18T07:30:19;9.00;62.10
19248;DHT22;9758;48.640;8.148;2023-11-18T07:32:46;9.10;62.10
19248;DHT22;9758;48.640;8.148;2023-11-18T07:35:12;9.10;62.10
19248;DHT22;9758;48.640;8.148;2023-11-18T07:37:39;9.20;62.10
19248;DHT22;9758;48.640;8.148;2023-11-18T07:40:07;9.20;62.10
19248;DHT22;9758;48.640;8.148;2023-11-18T07:42:37;9.30;62.10
19248;DHT22;9758;48.640;8.148;2023-11-18T07:45:05;9.30;62.10
19248;DHT22;9758;48.640;8.148;2023-11-18T07:47:44;9.40;62.10
19248;DHT22;9758;48.640;8.148;2023-11-18T07:50:11;9.40;62.10
19248;DHT22;9758;48.640;8.148;2023-11-18T07:52:39;9.40;62.10
19248;DHT22;9758;48.640;8.148;2023-11-18T07:55:06;9.50;62.00
19248;DHT22;9758;48.640;8.148;2023-11-18T07:57:36;9.50;62.00
19248;DHT22;9758;48.640;8.148;2023-11-18T08:00:14;9.50;62.00
19248;DHT22;9758;48.640;8.148;2023-11-18T08:02:40;9.60;62.00
19248;DHT22;9758;48.640;8.148;2023-11-18T08:05:09;9.60;62.00
19248;DHT22;9758;48.640;8.148;2023-11-18T08:07:39;9.60;62.00
19248;DHT22;9758;48.640;8.148;2023-11-18T08:10:07;9.70;62.00
19248;DHT22;9758;48.640;8.148;2023-11-18T08:12:38;9.70;61.90
19248;DHT22;9758;48.640;8.148;2023-11-18T08:15:06;9.80;62.00
19248;DHT22;9758;48.640;8.148;2023-11-18T08:17:34;9.80;61.90
19248;DHT22;9758;48.640;8.148;2023-11-18T08:20:01;9.90;61.80
19248;DHT22;9758;48.640;8.148;2023-11-18T08:22:34;9.90;61.80
19248;DHT22;9758;48.640;8.148;2023-11-18T08:25:00;9.90;61.70
19248;DHT22;9758;48.640;8.148;2023-11-18T08:27:27;10.00;61.80
19248;DHT22;9758;48.640;8.148;2023-11-18T08:29:54;10.00;61.80
19248;DHT22;9758;48.640;8.148;2023-11-18T08:32:21;10.10;61.90
19248;DHT22;9758;48.640;8.148;2023-11-18T08:34:50;10.10;61.80
19248;DHT22;9758;48.640;8.148;2023-11-18T08:37:17;10.20;61.80
19248;DHT22;9758;48.640;8.148;2023-11-18T08:39:45;10.20;61.70
19248;DHT22;9758;48.640;8.148;2023-11-18T08:42:12;10.30;61.60
19248;DHT22;9758;48.640;8.148;2023-11-18T08:44:40;10.30;61.70
19248;DHT22;9758;48.640;8.148;2023-11-18T08:47:08;10.30;61.70
19248;DHT22;9758;48.640;8.148;2023-11-18T08:49:38;10.40;61.70
19248;DHT22;9758;48.640;8.148;2023-11-18T08:52:05;10.40;61.90
19248;DHT22;9758;48.640;8.148;2023-11-18T08:54:35;10.50;61.60
19248;DHT22;9758;48.640;8.148;2023-11-18T08:57:10;10.50;61.60
19248;DHT22;9758;48.640;8.148;2023-11-18T08:59:49;10.60;61.70
19248;DHT22;9758;48.640;8.148;2023-11-18T09:02:17;10.70;61.50
19248;DHT22;9758;48.640;8.148;2023-11-18T09:04:48;10.70;61.40
19248;DHT22;9758;48.640;8.148;2023-11-18T09:07:17;10.80;61.40
19248;DHT22;9758;48.640;8.148;2023-11-18T09:09:44;10.90;61.40
19248;DHT22;9758;48.640;8.148;2023-11-18T09:12:16;10.90;61.30
19248;DHT22;9758;48.640;8.148;2023-11-18T09:14:44;11.00;61.30
19248;DHT22;9758;48.640;8.148;2023-11-18T09:17:13;11.00;61.10
19248;DHT22;9758;48.640;8.148;2023-11-18T09:19:40;11.00;61.10
19248;DHT22;9758;48.640;8.148;2023-11-18T09:22:07;11.10;61.30
19248;DHT22;9758;48.640;8.148;2023-11-18T09:24:38;11.20;61.30
19248;DHT22;9758;48.640;8.148;2023-11-18T09:27:05;11.30;61.20
19248;DHT22;9758;48.640;8.148;2023-11-18T09:29:33;11.40;61.30
19248;DHT22;9758;48.640;8.148;2023-11-18T09:32:00;11.40;61.10
19248;DHT22;9758;48.640;8.148;2023-11-18T09:34:31;11.50;61.00
19248;DHT22;9758;48.640;8.148;2023-11-18T09:36:58;11.60;61.00
19248;DHT22;9758;48.640;8.148;2023-11-18T09:39:25;11.60;61.00
19248;DHT22;9758;48.640;8.148;2023-11-18T09:42:05;11.70;60.90
19248;DHT22;9758;48.640;8.148;2023-11-18T09:44:36;11.70;60.80
19248;DHT22;9758;48.640;8.148;2023-11-18T09:47:07;11.80;60.70
19248;DHT22;9758;48.640;8.148;2023-11-18T09:49:40;11.80;60.60
19248;DHT22;9758;48.640;8.148;2023-11-18T09:52:15;11.80;60.50
19248;DHT22;9758;48.640;8.148;2023-11-18T09:54:52;11.90;60.50
19248;DHT22;9758;48.640;8.148;2023-11-18T09:57:30;11.90;60.50
19248;DHT22;9758;48.640;8.148;2023-11-18T10:00:01;11.90;60.50
19248;DHT22;9758;48.640;8.148;2023-11-18T10:02:39;12.00;60.50
19248;DHT22;9758;48.640;8.148;2023-11-18T10:05:07;12.10;60.50
19248;DHT22;9758;48.640;8.148;2023-11-18T10:07:38;12.10;60.50
19248;DHT22;9758;48.640;8.148;2023-11-18T10:10:07;12.10;60.50
19248;DHT22;9758;48.640;8.148;2023-11-18T10:12:40;12.20;60.50
19248;DHT22;9758;48.640;8.148;2023-11-18T10:15:12;12.30;60.40
19248;DHT22;9758;48.640;8.148;2023-11-18T10:17:42;12.30;60.40
19248;DHT22;9758;48.640;8.148;2023-11-18T10:20:21;12.30;60.40
19248;DHT22;9758;48.640;8.148;2023-11-18T10:23:05;12.40;60.40
19248;DHT22;9758;48.640;8.148;2023-11-18T10:25:32;12.40;60.30
19248;DHT22;9758;48.640;8.148;2023-11-18T10:28:00;12.40;60.20
19248;DHT22;9758;48.640;8.148;2023-11-18T10:30:29;12.40;60.10
19248;DHT22;9758;48.640;8.148;2023-11-18T10:32:58;12.40;60.00
19248;DHT22;9758;48.640;8.148;2023-11-18T10:35:31;12.50;60.10
19248;DHT22;9758;48.640;8.148;2023-11-18T10:38:01;12.50;60.10
19248;DHT22;9758;48.640;8.148;2023-11-18T10:40:31;12.50;60.00
19248;DHT22;9758;48.640;8.148;2023-11-18T10:43:00;12.50;60.00
19248;DHT22;9758;48.640;8.148;2023-11-18T10:45:28;12.60;60.00
19248;DHT22;9758;48.640;8.148;2023-11-18T10:47:56;12.50;60.70
19248;DHT22;9758;48.640;8.148;2023-11-18T10:50:23;12.50;60.00
19248;DHT22;9758;48.640;8.148;2023-11-18T10:52:52;12.50;60.00
19248;DHT22;9758;48.640;8.148;2023-11-18T10:55:19;12.50;59.90
19248;DHT22;9758;48.640;8.148;2023-11-18T10:57:46;12.50;59.90
19248;DHT22;9758;48.640;8.148;2023-11-18T11:00:14;12.60;59.90
19248;DHT22;9758;48.640;8.148;2023-11-18T11:02:45;12.50;59.90
19248;DHT22;9758;48.640;8.148;2023-11-18T11:05:27;12.50;59.80
19248;DHT22;9758;48.640;8.148;2023-11-18T11:07:58;12.50;59.80
19248;DHT22;9758;48.640;8.148;2023-11-18T11:10:25;12.50;59.70
19248;DHT22;9758;48.640;8.148;2023-11-18T11:12:55;12.40;59.80
19248;DHT22;9758;48.640;8.148;2023-11-18T11:15:26;12.40;60.00
19248;DHT22;9758;48.640;8.148;2023-11-18T11:18:03;12.40;59.90
19248;DHT22;9758;48.640;8.148;2023-11-18T11:20:53;12.30;59.90
19248;DHT22;9758;48.640;8.148;2023-11-18T11:23:30;12.40;60.00
19248;DHT22;9758;48.640;8.148;2023-11-18T11:26:06;12.40;59.90
19248;DHT22;9758;48.640;8.148;2023-11-18T11:28:43;12.40;59.90
19248;DHT22;9758;48.640;8.148;2023-11-18T11:31:16;12.40;59.90
19248;DHT22;9758;48.640;8.148;2023-11-18T11:33:57;12.30;59.80
19248;DHT22;9758;48.640;8.148;2023-11-18T11:36:30;12.30;59.80
19248;DHT22;9758;48.640;8.148;2023-11-18T11:39:00;12.30;59.70
19248;DHT22;9758;48.640;8.148;2023-11-18T11:41:29;12.30;59.70
19248;DHT22;9758;48.640;8.148;2023-11-18T11:44:00;12.30;59.80
19248;DHT22;9758;48.640;8.148;2023-11-18T11:46:28;12.20;59.80
19248;DHT22;9758;48.640;8.148;2023-11-18T11:49:02;12.20;59.80
19248;DHT22;9758;48.640;8.148;2023-11-18T11:51:42;12.20;59.90
19248;DHT22;9758;48.640;8.148;2023-11-18T11:54:17;12.20;59.80
19248;DHT22;9758;48.640;8.148;2023-11-18T11:56:47;12.20;59.80
19248;DHT22;9758;48.640;8.148;2023-11-18T11:59:15;12.20;59.80
19248;DHT22;9758;48.640;8.148;2023-11-18T12:01:43;12.20;59.70
19248;DHT22;9758;48.640;8.148;2023-11-18T12:04:15;12.20;59.80
19248;DHT22;9758;48.640;8.148;2023-11-18T12:06:47;12.20;59.80
19248;DHT22;9758;48.640;8.148;2023-11-18T12:09:19;12.20;59.80
19248;DHT22;9758;48.640;8.148;2023-11-18T12:11:46;12.10;59.70
19248;DHT22;9758;48.640;8.148;2023-11-18T12:14:27;12.10;59.70
19248;DHT22;9758;48.640;8.148;2023-11-18T12:17:18;12.10;59.70
19248;DHT22;9758;48.640;8.148;2023-11-18T12:19:51;12.10;59.70
19248;DHT22;9758;48.640;8.148;2023-11-18T12:22:24;12.10;59.90
19248;DHT22;9758;48.640;8.148;2023-11-18T12:28:08;12.10;60.30
19248;DHT22;9758;48.640;8.148;2023-11-18T12:30:38;12.10;59.70
19248;DHT22;9758;48.640;8.148;2023-11-18T12:33:09;12.10;59.70
19248;DHT22;9758;48.640;8.148;2023-11-18T12:41:37;12.10;59.80
19248;DHT22;9758;48.640;8.148;2023-11-18T12:44:15;12.10;59.80
19248;DHT22;9758;48.640;8.148;2023-11-18T12:46:53;12.10;59.80
19248;DHT22;9758;48.640;8.148;2023-11-18T12:49:21;12.20;59.70
19248;DHT22;9758;48.640;8.148;2023-11-18T12:51:51;12.20;59.70
19248;DHT22;9758;48.640;8.148;2023-11-18T12:54:19;12.20;59.70
19248;DHT22;9758;48.640;8.148;2023-11-18T12:56:47;12.30;59.70
19248;DHT22;9758;48.640;8.148;2023-11-18T12:59:15;12.30;59.60
19248;DHT22;9758;48.640;8.148;2023-11-18T13:01:44;12.40;59.60
19248;DHT22;9758;48.640;8.148;2023-11-18T13:04:17;12.40;59.50
19248;DHT22;9758;48.640;8.148;2023-11-18T13:06:45;12.40;59.50
19248;DHT22;9758;48.640;8.148;2023-11-18T13:09:14;12.40;59.50
19248;DHT22;9758;48.640;8.148;2023-11-18T13:11:52;12.40;59.40
19248;DHT22;9758;48.640;8.148;2023-11-18T13:14:20;12.40;59.30
19248;DHT22;9758;48.640;8.148;2023-11-18T13:16:47;12.40;59.30
19248;DHT22;9758;48.640;8.148;2023-11-18T13:19:23;12.40;59.40
19248;DHT22;9758;48.640;8.148;2023-11-18T13:21:51;12.50;59.50
19248;DHT22;9758;48.640;8.148;2023-11-18T13:24:19;12.50;59.40
19248;DHT22;9758;48.640;8.148;2023-11-18T13:26:46;12.50;59.40
19248;DHT22;9758;48.640;8.148;2023-11-18T13:29:14;12.50;59.20
19248;DHT22;9758;48.640;8.148;2023-11-18T13:31:41;12.50;59.30
19248;DHT22;9758;48.640;8.148;2023-11-18T13:34:09;12.50;59.10
19248;DHT22;9758;48.640;8.148;2023-11-18T13:36:36;12.40;59.30
19248;DHT22;9758;48.640;8.148;2023-11-18T13:39:04;12.40;59.30
19248;DHT22;9758;48.640;8.148;2023-11-18T13:41:33;12.40;59.30
19248;DHT22;9758;48.640;8.148;2023-11-18T13:44:02;12.50;59.20
19248;DHT22;9758;48.640;8.148;2023-11-18T13:46:29;12.40;59.10
19248;DHT22;9758;48.640;8.148;2023-11-18T13:49:03;12.40;59.20
19248;DHT22;9758;48.640;8.148;2023-11-18T13:51:32;12.30;59.20
19248;DHT22;9758;48.640;8.148;2023-11-18T13:54:01;12.30;59.00
19248;DHT22;9758;48.640;8.148;2023-11-18T13:56:28;12.30;59.00
19248;DHT22;9758;48.640;8.148;2023-11-18T13:58:57;12.20;59.20
19248;DHT22;9758;48.640;8.148;2023-11-18T14:01:25;12.30;59.40
19248;DHT22;9758;48.640;8.148;2023-11-18T14:03:53;12.20;59.40
19248;DHT22;9758;48.640;8.148;2023-11-18T14:06:22;12.30;59.30
19248;DHT22;9758;48.640;8.148;2023-11-18T14:08:48;12.30;59.40
19248;DHT22;9758;48.640;8.148;2023-11-18T14:11:16;12.30;59.40
19248;DHT22;9758;48.640;8.148;2023-11-18T14:13:43;12.30;59.30
19248;DHT22;9758;48.640;8.148;2023-11-18T14:16:11;12.30;59.30
19248;DHT22;9758;48.640;8.148;2023-11-18T14:18:38;12.40;59.40
19248;DHT22;9758;48.640;8.148;2023-11-18T14:21:07;12.40;59.30
19248;DHT22;9758;48.640;8.148;2023-11-18T14:23:34;12.30;58.90
19248;DHT22;9758;48.640;8.148;2023-11-18T14:26:03;12.40;59.10
19248;DHT22;9758;48.640;8.148;2023-11-18T14:28:30;12.40;59.00
19248;DHT22;9758;48.640;8.148;2023-11-18T14:31:00;12.30;58.90
19248;DHT22;9758;48.640;8.148;2023-11-18T14:33:28;12.40;59.20
19248;DHT22;9758;48.640;8.148;2023-11-18T14:35:54;12.30;59.30
19248;DHT22;9758;48.640;8.148;2023-11-18T14:38:21;12.30;59.10
19248;DHT22;9758;48.640;8.148;2023-11-18T14:40:48;12.40;59.20
19248;DHT22;9758;48.640;8.148;2023-11-18T14:43:15;12.40;59.10
19248;DHT22;9758;48.640;8.148;2023-11-18T14:45:42;12.50;59.20
19248;DHT22;9758;48.640;8.148;2023-11-18T14:48:08;12.40;59.10
19248;DHT22;9758;48.640;8.148;2023-11-18T14:50:37;12.40;58.90
19248;DHT22;9758;48.640;8.148;2023-11-18T14:53:04;12.40;58.70
19248;DHT22;9758;48.640;8.148;2023-11-18T14:55:31;12.40;58.80
19248;DHT22;9758;48.640;8.148;2023-11-18T14:57:59;12.30;58.70
19248;DHT22;9758;48.640;8.148;2023-11-18T15:00:26;12.30;58.80
19248;DHT22;9758;48.640;8.148;2023-11-18T15:02:58;12.30;58.80
19248;DHT22;9758;48.640;8.148;2023-11-18T15:05:25;12.20;58.80
19248;DHT22;9758;48.640;8.148;2023-11-18T15:07:54;12.20;58.30
19248;DHT22;9758;48.640;8.148;2023-11-18T15:10:23;12.20;58.70
19248;DHT22;9758;48.640;8.148;2023-11-18T15:12:51;12.10;58.70
19248;DHT22;9758;48.640;8.148;2023-11-18T15:15:19;12.10;58.90
19248;DHT22;9758;48.640;8.148;2023-11-18T15:17:46;12.10;58.90
19248;DHT22;9758;48.640;8.148;2023-11-18T15:20:14;12.10;58.90
19248;DHT22;9758;48.640;8.148;2023-11-18T15:22:44;12.10;58.80
19248;DHT22;9758;48.640;8.148;2023-11-18T15:25:12;12.10;58.80
19248;DHT22;9758;48.640;8.148;2023-11-18T15:27:42;12.10;58.80
19248;DHT22;9758;48.640;8.148;2023-11-18T15:30:12;12.10;58.80
19248;DHT22;9758;48.640;8.148;2023-11-18T15:32:38;12.10;58.70
19248;DHT22;9758;48.640;8.148;2023-11-18T15:35:06;12.00;58.70
19248;DHT22;9758;48.640;8.148;2023-11-18T15:37:37;12.00;58.70
19248;DHT22;9758;48.640;8.148;2023-11-18T15:40:14;12.00;58.70
19248;DHT22;9758;48.640;8.148;2023-11-18T15:42:45;12.00;58.70
19248;DHT22;9758;48.640;8.148;2023-11-18T15:45:15;12.00;58.70
19248;DHT22;9758;48.640;8.148;2023-11-18T15:47:42;12.00;58.70
19248;DHT22;9758;48.640;8.148;2023-11-18T15:50:10;11.90;58.60
19248;DHT22;9758;48.640;8.148;2023-11-18T15:52:41;11.90;58.50
19248;DHT22;9758;48.640;8.148;2023-11-18T15:55:08;11.90;58.60
19248;DHT22;9758;48.640;8.148;2023-11-18T15:57:40;12.00;58.70
19248;DHT22;9758;48.640;8.148;2023-11-18T16:00:09;12.00;58.70
19248;DHT22;9758;48.640;8.148;2023-11-18T16:02:41;11.90;58.70
19248;DHT22;9758;48.640;8.148;2023-11-18T16:05:11;12.00;58.50
19248;DHT22;9758;48.640;8.148;2023-11-18T16:07:39;11.90;58.50
19248;DHT22;9758;48.640;8.148;2023-11-18T16:10:06;11.90;58.60
19248;DHT22;9758;48.640;8.148;2023-11-18T16:12:33;11.90;58.70